Time;durP1;ratioP1;P1;durP2;ratioP2;P2;SDS_P1;SDS_P2;PMS_P1;PMS_P2;Temp;Humidity;BMP_temperature;BMP_pressure;BME280_temperature;BME280_humidity;BME280_pressure;Samples;Min_cycle;Max_cycle;Signal;HPM_P1;HPM_P2
2022/12/22 03:29:21;;;;;;;;;;;;;;;7.36;100;100324.5;;;;-73
2022/12/22 03:34:21;;;;;;;;;;;;;;;7.37;100;100326.6;;;;-73
2022/12/22 03:39:20;;;;;;;;;;;;;;;7.36;100;100319.6;;;;-74
2022/12/22 03:49:21;;;;;;;;;;;;;;;7.35;100;100332.1;;;;-74
2022/12/22 03:52:35;;;;;;;25;11.6;;;;;;;;;;;;;-73
2022/12/22 03:54:21;;;;;;;;;;;;;;;7.34;100;100322.6;;;;-73
2022/12/22 03:59:21;;;;;;;;;;;;;;;7.34;100;100321.3;;;;-74
2022/12/22 04:04:21;;;;;;;;;;;;;;;7.33;100;100325.1;;;;-73
2022/12/22 04:09:21;;;;;;;;;;;;;;;7.33;100;100326.6;;;;-74
2022/12/22 04:14:21;;;;;;;;;;;;;;;7.33;100;100329.7;;;;-74
2022/12/22 04:19:20;;;;;;;;;;;;;;;7.34;100;100338.9;;;;-73
2022/12/22 04:22:36;;;;;;;27.5;11.8;;;;;;;;;;;;;-74
2022/12/22 04:24:21;;;;;;;;;;;;;;;7.33;100;100347.8;;;;-74
2022/12/22 04:29:20;;;;;;;;;;;;;;;7.33;100;100342.9;;;;-74
2022/12/22 04:34:20;;;;;;;;;;;;;;;7.33;100;100338;;;;-74
2022/12/22 04:39:20;;;;;;;;;;;;;;;7.33;100;100341.8;;;;-73
2022/12/22 04:44:21;;;;;;;;;;;;;;;7.33;100;100347.5;;;;-74
2022/12/22 04:49:20;;;;;;;;;;;;;;;7.33;100;100347.9;;;;-72
2022/12/22 04:52:36;;;;;;;25.2;11.4;;;;;;;;;;;;;-73
2022/12/22 04:54:21;;;;;;;;;;;;;;;7.32;100;100332.1;;;;-73
2022/12/22 04:59:21;;;;;;;;;;;;;;;7.3;100;100321.1;;;;-73
2022/12/22 05:04:21;;;;;;;;;;;;;;;7.27;100;100327.7;;;;-74
2022/12/22 05:09:21;;;;;;;;;;;;;;;7.23;100;100337.6;;;;-74
2022/12/22 05:14:21;;;;;;;;;;;;;;;7.21;100;100351.4;;;;-74
2022/12/22 05:19:20;;;;;;;;;;;;;;;7.19;100;100354;;;;-74
2022/12/22 05:22:37;;;;;;;27.5;11.4;;;;;;;;;;;;;-73
2022/12/22 05:24:21;;;;;;;;;;;;;;;7.17;100;100362.8;;;;-74
2022/12/22 05:29:21;;;;;;;;;;;;;;;7.17;100;100377.8;;;;-73
2022/12/22 05:34:21;;;;;;;;;;;;;;;7.15;100;100378.9;;;;-73
2022/12/22 05:39:21;;;;;;;;;;;;;;;7.14;100;100373.6;;;;-72
2022/12/22 05:44:21;;;;;;;;;;;;;;;7.12;100;100372.8;;;;-73
2022/12/22 05:49:21;;;;;;;;;;;;;;;7.11;100;100383.3;;;;-73
2022/12/22 05:52:37;;;;;;;28.4;10.7;;;;;;;;;;;;;-75
2022/12/22 05:54:20;;;;;;;;;;;;;;;7.09;100;100381.3;;;;-73
2022/12/22 05:59:21;;;;;;;;;;;;;;;7.08;100;100383.6;;;;-74
2022/12/22 06:04:21;;;;;;;;;;;;;;;7.05;100;100398.3;;;;-74
2022/12/22 06:09:20;;;;;;;;;;;;;;;7.02;100;100391.7;;;;-73
2022/12/22 06:14:21;;;;;;;;;;;;;;;6.99;100;100389.1;;;;-75
2022/12/22 06:19:21;;;;;;;;;;;;;;;6.96;100;100399;;;;-73
2022/12/22 06:22:38;;;;;;;23.5;9.3;;;;;;;;;;;;;-73
2022/12/22 06:24:20;;;;;;;;;;;;;;;6.93;100;100401.5;;;;-72
2022/12/22 06:29:21;;;;;;;;;;;;;;;6.91;100;100411.2;;;;-73
2022/12/22 06:34:21;;;;;;;;;;;;;;;6.89;100;100419.3;;;;-74
2022/12/22 06:39:20;;;;;;;;;;;;;;;6.86;100;100425.1;;;;-74
2022/12/22 06:44:20;;;;;;;;;;;;;;;6.85;100;100434.4;;;;-73
2022/12/22 06:49:20;;;;;;;;;;;;;;;6.83;100;100423.8;;;;-74
2022/12/22 06:52:38;;;;;;;23.4;8.7;;;;;;;;;;;;;-73
2022/12/22 06:54:21;;;;;;;;;;;;;;;6.83;100;100432.8;;;;-72
2022/12/22 06:59:20;;;;;;;;;;;;;;;6.81;100;100443.8;;;;-74
2022/12/22 07:04:21;;;;;;;;;;;;;;;6.79;100;100448.2;;;;-74
2022/12/22 07:09:20;;;;;;;;;;;;;;;6.78;100;100459.7;;;;-74
2022/12/22 07:14:20;;;;;;;;;;;;;;;6.75;100;100457.9;;;;-75
2022/12/22 07:19:20;;;;;;;;;;;;;;;6.71;100;100456.6;;;;-75
2022/12/22 07:22:41;;;;;;;18.4;7.8;;;;;;;;;;;;;-75
2022/12/22 07:24:24;;;;;;;;;;;;;;;6.65;100;100458;;;;-75
2022/12/22 07:29:21;;;;;;;;;;;;;;;6.59;100;100460.7;;;;-74
2022/12/22 07:34:20;;;;;;;;;;;;;;;6.49;100;100467.2;;;;-73
2022/12/22 07:39:21;;;;;;;;;;;;;;;6.4;100;100476.3;;;;-73
2022/12/22 07:44:23;;;;;;;;;;;;;;;6.29;100;100487.9;;;;-73
2022/12/22 07:52:40;;;;;;;16;6.4;;;;;;;;;;;;;-80
2022/12/22 07:54:21;;;;;;;;;;;;;;;6.08;100;100482.5;;;;-79
2022/12/22 07:59:21;;;;;;;;;;;;;;;6;100;100498.1;;;;-79
2022/12/22 08:04:21;;;;;;;;;;;;;;;5.88;100;100510.8;;;;-80
2022/12/22 08:09:21;;;;;;;;;;;;;;;5.79;100;100512.1;;;;-80
2022/12/22 08:14:21;;;;;;;;;;;;;;;5.71;100;100516.9;;;;-79
2022/12/22 08:19:20;;;;;;;;;;;;;;;5.63;100;100525.4;;;;-79
2022/12/22 08:22:39;;;;;;;14.6;5.7;;;;;;;;;;;;;-79
2022/12/22 08:24:21;;;;;;;;;;;;;;;5.52;100;100522;;;;-79
2022/12/22 08:29:22;;;;;;;;;;;;;;;5.42;100;100524.3;;;;-79
2022/12/22 08:34:20;;;;;;;;;;;;;;;5.34;100;100531.7;;;;-80
2022/12/22 08:39:22;;;;;;;;;;;;;;;5.27;100;100536.4;;;;-79
2022/12/22 08:44:21;;;;;;;;;;;;;;;5.25;100;100550.5;;;;-79
2022/12/22 08:49:21;;;;;;;;;;;;;;;5.2;100;100552.8;;;;-80
2022/12/22 08:52:40;;;;;;;11.2;4.3;;;;;;;;;;;;;-86
2022/12/22 08:54:21;;;;;;;;;;;;;;;5.17;100;100556.3;;;;-79
2022/12/22 08:59:20;;;;;;;;;;;;;;;5.17;100;100556.8;;;;-79
2022/12/22 09:04:21;;;;;;;;;;;;;;;5.19;100;100556.1;;;;-79
2022/12/22 09:09:20;;;;;;;;;;;;;;;5.26;100;100564.7;;;;-73
2022/12/22 09:14:21;;;;;;;;;;;;;;;5.41;100;100566.2;;;;-73
2022/12/22 09:19:21;;;;;;;;;;;;;;;5.56;100;100566.9;;;;-74
2022/12/22 09:22:39;;;;;;;8.2;3.5;;;;;;;;;;;;;-73
2022/12/22 09:24:21;;;;;;;;;;;;;;;5.68;100;100581.4;;;;-74
2022/12/22 09:29:21;;;;;;;;;;;;;;;5.75;100;100589.6;;;;-74
2022/12/22 09:34:20;;;;;;;;;;;;;;;5.8;100;100596.1;;;;-74
2022/12/22 09:39:20;;;;;;;;;;;;;;;5.88;100;100595.3;;;;-75
2022/12/22 09:44:25;;;;;;;;;;;;;;;5.95;100;100597.5;;;;-74
2022/12/22 09:49:21;;;;;;;;;;;;;;;6.04;100;100608.5;;;;-74
2022/12/22 09:52:47;;;;;;;6.3;2.7;;;;;;;;;;;;;-74
2022/12/22 09:54:20;;;;;;;;;;;;;;;6.08;100;100596.3;;;;-74
2022/12/22 09:59:21;;;;;;;;;;;;;;;6.08;100;100592.6;;;;-74
2022/12/22 10:04:29;;;;;;;;;;;;;;;6.1;100;100601.6;;;;-74
2022/12/22 10:09:23;;;;;;;;;;;;;;;6.15;100;100604.5;;;;-74
2022/12/22 10:14:20;;;;;;;;;;;;;;;6.21;100;100609.1;;;;-74
2022/12/22 10:19:23;;;;;;;;;;;;;;;6.28;100;100611.4;;;;-74
2022/12/22 10:22:42;;;;;;;9.7;2.2;;;;;;;;;;;;;-75
2022/12/22 10:24:22;;;;;;;;;;;;;;;6.34;100;100616.1;;;;-74
2022/12/22 10:29:21;;;;;;;;;;;;;;;6.43;100;100627.8;;;;-74
2022/12/22 10:34:22;;;;;;;;;;;;;;;6.51;100;100631.4;;;;-75
2022/12/22 10:39:22;;;;;;;;;;;;;;;6.66;100;100639.5;;;;-74
2022/12/22 10:44:26;;;;;;;;;;;;;;;6.76;100;100642.7;;;;-74
2022/12/22 10:49:23;;;;;;;;;;;;;;;6.83;100;100636.6;;;;-74
2022/12/22 10:52:40;;;;;;;7.4;2.3;;;;;;;;;;;;;-73
2022/12/22 10:54:34;;;;;;;;;;;;;;;6.85;100;100631.9;;;;-79
2022/12/22 10:59:22;;;;;;;;;;;;;;;6.95;100;100630;;;;-78
2022/12/22 11:04:25;;;;;;;;;;;;;;;7.02;100;100629.8;;;;-79
2022/12/22 11:09:22;;;;;;;;;;;;;;;7.03;100;100636.2;;;;-78
2022/12/22 11:14:27;;;;;;;;;;;;;;;7.07;100;100634.8;;;;-79
2022/12/22 11:19:37;;;;;;;;;;;;;;;7.11;100;100638.7;;;;-79
2022/12/22 11:22:44;;;;;;;6.4;1.5;;;;;;;;;;;;;-80
2022/12/22 11:24:25;;;;;;;;;;;;;;;7.13;100;100636.2;;;;-78
2022/12/22 11:29:28;;;;;;;;;;;;;;;7.19;100;100651.1;;;;-78
2022/12/22 11:34:26;;;;;;;;;;;;;;;7.26;100;100649.1;;;;-79
2022/12/22 11:39:22;;;;;;;;;;;;;;;7.27;100;100640.5;;;;-79
2022/12/22 11:44:33;;;;;;;;;;;;;;;7.31;100;100645;;;;-78
2022/12/22 11:49:44;;;;;;;;;;;;;;;7.34;100;100654.5;;;;-78
2022/12/22 11:52:57;;;;;;;4.9;1.6;;;;;;;;;;;;;-80
2022/12/22 11:54:34;;;;;;;;;;;;;;;7.39;100;100651;;;;-80
2022/12/22 11:59:30;;;;;;;;;;;;;;;7.45;100;100644.4;;;;-78
2022/12/22 12:04:30;;;;;;;;;;;;;;;7.44;100;100644.3;;;;-79
2022/12/22 12:09:30;;;;;;;;;;;;;;;7.46;100;100640.4;;;;-77
2022/12/22 12:14:27;;;;;;;;;;;;;;;7.5;100;100630.7;;;;-79
2022/12/22 12:19:35;;;;;;;;;;;;;;;7.52;100;100636.3;;;;-79
2022/12/22 12:22:45;;;;;;;6.1;2.6;;;;;;;;;;;;;-78
2022/12/22 12:24:27;;;;;;;;;;;;;;;7.53;100;100638.6;;;;-79
2022/12/22 12:29:22;;;;;;;;;;;;;;;7.56;100;100646;;;;-78
2022/12/22 12:34:21;;;;;;;;;;;;;;;7.53;100;100629.1;;;;-79
2022/12/22 12:39:24;;;;;;;;;;;;;;;7.51;100;100638.2;;;;-79
2022/12/22 12:44:21;;;;;;;;;;;;;;;7.49;100;100640.8;;;;-78
2022/12/22 12:49:31;;;;;;;;;;;;;;;7.44;100;100634.1;;;;-79
2022/12/22 12:52:52;;;;;;;10.2;3.9;;;;;;;;;;;;;-79
2022/12/22 12:54:39;;;;;;;;;;;;;;;7.44;100;100632.8;;;;-79
2022/12/22 12:59:31;;;;;;;;;;;;;;;7.4;100;100639.3;;;;-79
2022/12/22 13:04:37;;;;;;;;;;;;;;;7.35;100;100647.8;;;;-78
2022/12/22 13:09:24;;;;;;;;;;;;;;;7.33;100;100664.1;;;;-78
2022/12/22 13:14:31;;;;;;;;;;;;;;;7.26;100;100652.6;;;;-79
2022/12/22 13:19:28;;;;;;;;;;;;;;;7.22;100;100644.7;;;;-79
2022/12/22 13:22:43;;;;;;;14.1;5.7;;;;;;;;;;;;;-79
2022/12/22 13:24:23;;;;;;;;;;;;;;;7.18;100;100640.7;;;;-79
2022/12/22 13:29:25;;;;;;;;;;;;;;;7.17;100;100645.6;;;;-80
2022/12/22 13:34:35;;;;;;;;;;;;;;;7.13;100;100653.2;;;;-79
2022/12/22 13:39:20;;;;;;;;;;;;;;;7.08;100;100645.9;;;;-79
2022/12/22 13:44:22;;;;;;;;;;;;;;;7.06;100;100630;;;;-79
2022/12/22 13:49:26;;;;;;;;;;;;;;;7.05;100;100623;;;;-79
2022/12/22 13:52:42;;;;;;;10.9;5.6;;;;;;;;;;;;;-78
2022/12/22 13:54:25;;;;;;;;;;;;;;;7.04;100;100616;;;;-79
2022/12/22 13:59:29;;;;;;;;;;;;;;;7.04;100;100609;;;;-78
2022/12/22 14:04:20;;;;;;;;;;;;;;;7.05;100;100604.9;;;;-73
2022/12/22 14:09:22;;;;;;;;;;;;;;;7.06;100;100606.9;;;;-74
2022/12/22 14:14:22;;;;;;;;;;;;;;;7.06;100;100609.2;;;;-74
2022/12/22 14:19:21;;;;;;;;;;;;;;;7.07;100;100604.7;;;;-74
2022/12/22 14:22:47;;;;;;;15.2;7.1;;;;;;;;;;;;;-74
2022/12/22 14:24:24;;;;;;;;;;;;;;;7.05;100;100599.4;;;;-73
2022/12/22 14:29:22;;;;;;;;;;;;;;;7.03;100;100589.7;;;;-74
2022/12/22 14:34:29;;;;;;;;;;;;;;;7.03;100;100581;;;;-74
2022/12/22 14:39:27;;;;;;;;;;;;;;;7.02;100;100575.1;;;;-74
2022/12/22 14:44:23;;;;;;;;;;;;;;;7.01;100;100562.5;;;;-73
2022/12/22 14:49:22;;;;;;;;;;;;;;;7.01;100;100556.5;;;;-73
2022/12/22 14:52:48;;;;;;;15.1;7.4;;;;;;;;;;;;;-73
2022/12/22 14:54:26;;;;;;;;;;;;;;;6.99;100;100554.5;;;;-73
2022/12/22 14:59:28;;;;;;;;;;;;;;;6.98;100;100551.4;;;;-73
2022/12/22 15:04:23;;;;;;;;;;;;;;;6.97;100;100555.5;;;;-73
2022/12/22 15:09:33;;;;;;;;;;;;;;;6.95;100;100555;;;;-73
2022/12/22 15:14:22;;;;;;;;;;;;;;;6.95;100;100543.4;;;;-73
2022/12/22 15:19:22;;;;;;;;;;;;;;;6.93;100;100539.8;;;;-73
2022/12/22 15:22:44;;;;;;;19.1;8.3;;;;;;;;;;;;;-73
2022/12/22 15:24:21;;;;;;;;;;;;;;;6.92;100;100537.6;;;;-73
2022/12/22 15:29:20;;;;;;;;;;;;;;;6.91;100;100532;;;;-73
2022/12/22 15:34:22;;;;;;;;;;;;;;;6.89;100;100529.5;;;;-74
2022/12/22 15:39:22;;;;;;;;;;;;;;;6.89;100;100533.8;;;;-73
2022/12/22 15:44:21;;;;;;;;;;;;;;;6.89;100;100530;;;;-73
2022/12/22 15:49:22;;;;;;;;;;;;;;;6.88;100;100523.6;;;;-74
2022/12/22 15:52:45;;;;;;;22;9.4;;;;;;;;;;;;;-74
2022/12/22 15:54:21;;;;;;;;;;;;;;;6.87;100;100520.2;;;;-74
2022/12/22 15:59:24;;;;;;;;;;;;;;;6.85;100;100510.5;;;;-74
2022/12/22 16:04:22;;;;;;;;;;;;;;;6.84;100;100509.3;;;;-73
2022/12/22 16:09:23;;;;;;;;;;;;;;;6.83;100;100511.1;;;;-74
2022/12/22 16:14:22;;;;;;;;;;;;;;;6.82;100;100506.1;;;;-74
2022/12/22 16:19:21;;;;;;;;;;;;;;;6.82;100;100499.3;;;;-74
2022/12/22 16:22:45;;;;;;;21.5;9.8;;;;;;;;;;;;;-73
2022/12/22 16:24:26;;;;;;;;;;;;;;;6.81;100;100492.9;;;;-73
2022/12/22 16:29:21;;;;;;;;;;;;;;;6.78;100;100478.9;;;;-74
2022/12/22 16:34:21;;;;;;;;;;;;;;;6.77;100;100473.7;;;;-75
2022/12/22 16:39:20;;;;;;;;;;;;;;;6.76;100;100458.5;;;;-75
2022/12/22 16:44:23;;;;;;;;;;;;;;;6.75;100;100454;;;;-75
2022/12/22 16:49:21;;;;;;;;;;;;;;;6.73;100;100456.1;;;;-74
2022/12/22 16:52:45;;;;;;;26.3;10.6;;;;;;;;;;;;;-72
2022/12/22 16:54:21;;;;;;;;;;;;;;;6.74;100;100450.1;;;;-74
2022/12/22 16:59:21;;;;;;;;;;;;;;;6.74;100;100451.7;;;;-74
2022/12/22 17:04:22;;;;;;;;;;;;;;;6.72;100;100446.4;;;;-75
2022/12/22 17:09:22;;;;;;;;;;;;;;;6.71;100;100439;;;;-79
2022/12/22 17:14:26;;;;;;;;;;;;;;;6.71;100;100429.3;;;;-78
2022/12/22 17:19:20;;;;;;;;;;;;;;;6.71;100;100424.4;;;;-79
2022/12/22 17:22:47;;;;;;;30.1;12.4;;;;;;;;;;;;;-79
2022/12/22 17:24:22;;;;;;;;;;;;;;;6.71;100;100414.2;;;;-79
2022/12/22 17:29:24;;;;;;;;;;;;;;;6.7;100;100406.6;;;;-79
2022/12/22 17:34:21;;;;;;;;;;;;;;;6.7;100;100397.8;;;;-81
2022/12/22 17:39:22;;;;;;;;;;;;;;;6.7;100;100386.6;;;;-78
2022/12/22 17:44:22;;;;;;;;;;;;;;;6.7;100;100390.2;;;;-79
2022/12/22 17:49:21;;;;;;;;;;;;;;;6.71;100;100384.8;;;;-79
2022/12/22 17:52:47;;;;;;;29.7;13;;;;;;;;;;;;;-78
2022/12/22 17:54:24;;;;;;;;;;;;;;;6.7;100;100374.6;;;;-78
2022/12/22 17:59:20;;;;;;;;;;;;;;;6.74;100;100368.4;;;;-81
2022/12/22 18:04:20;;;;;;;;;;;;;;;6.71;100;100360;;;;-79
2022/12/22 18:09:22;;;;;;;;;;;;;;;6.72;100;100359.8;;;;-76
2022/12/22 18:14:22;;;;;;;;;;;;;;;6.72;100;100349.5;;;;-75
2022/12/22 18:19:21;;;;;;;;;;;;;;;6.74;100;100345.3;;;;-75
2022/12/22 18:22:46;;;;;;;31.3;12.6;;;;;;;;;;;;;-75
2022/12/22 18:24:22;;;;;;;;;;;;;;;6.74;100;100346.8;;;;-75
2022/12/22 18:29:21;;;;;;;;;;;;;;;6.74;100;100337.1;;;;-75
2022/12/22 18:34:20;;;;;;;;;;;;;;;6.73;100;100337.1;;;;-75
2022/12/22 18:39:23;;;;;;;;;;;;;;;6.76;100;100328.2;;;;-75
2022/12/22 18:44:22;;;;;;;;;;;;;;;6.74;100;100323.4;;;;-75
2022/12/22 18:49:20;;;;;;;;;;;;;;;6.75;100;100317.9;;;;-75
2022/12/22 18:52:47;;;;;;;25.2;11.2;;;;;;;;;;;;;-77
2022/12/22 18:54:28;;;;;;;;;;;;;;;6.77;100;100310.1;;;;-75
2022/12/22 18:59:26;;;;;;;;;;;;;;;6.77;100;100302.8;;;;-75
2022/12/22 19:04:20;;;;;;;;;;;;;;;6.79;100;100306.3;;;;-75
2022/12/22 19:09:22;;;;;;;;;;;;;;;6.8;100;100313;;;;-75
2022/12/22 19:14:23;;;;;;;;;;;;;;;6.82;100;100299;;;;-74
2022/12/22 19:19:23;;;;;;;;;;;;;;;6.83;100;100299;;;;-74
2022/12/22 19:22:48;;;;;;;23.5;10.2;;;;;;;;;;;;;-75
2022/12/22 19:24:20;;;;;;;;;;;;;;;6.86;100;100291.2;;;;-77
2022/12/22 19:29:20;;;;;;;;;;;;;;;6.89;100;100287;;;;-75
2022/12/22 19:34:22;;;;;;;;;;;;;;;6.9;100;100295.1;;;;-75
2022/12/22 19:39:20;;;;;;;;;;;;;;;6.91;100;100297.5;;;;-75
2022/12/22 19:44:25;;;;;;;;;;;;;;;6.92;100;100294.8;;;;-76
2022/12/22 19:49:22;;;;;;;;;;;;;;;6.94;100;100293.1;;;;-75
2022/12/22 19:52:48;;;;;;;22.4;9.5;;;;;;;;;;;;;-75
2022/12/22 19:54:20;;;;;;;;;;;;;;;6.97;100;100294.6;;;;-74
2022/12/22 19:59:24;;;;;;;;;;;;;;;6.99;100;100283.7;;;;-75
2022/12/22 20:04:20;;;;;;;;;;;;;;;7.01;100;100283.7;;;;-76
2022/12/22 20:09:20;;;;;;;;;;;;;;;7.02;100;100291.7;;;;-75
2022/12/22 20:14:22;;;;;;;;;;;;;;;7.05;100;100291.8;;;;-75
2022/12/22 20:19:20;;;;;;;;;;;;;;;7.07;100;100282.7;;;;-79
2022/12/22 20:22:50;;;;;;;21.2;9.2;;;;;;;;;;;;;-81
2022/12/22 20:24:22;;;;;;;;;;;;;;;7.09;100;100283;;;;-80
2022/12/22 20:29:23;;;;;;;;;;;;;;;7.11;100;100279.4;;;;-79
2022/12/22 20:34:20;;;;;;;;;;;;;;;7.13;100;100282.1;;;;-78
2022/12/22 20:39:20;;;;;;;;;;;;;;;7.15;100;100285.8;;;;-80
2022/12/22 20:44:20;;;;;;;;;;;;;;;7.19;100;100288.6;;;;-80
2022/12/22 20:49:20;;;;;;;;;;;;;;;7.21;100;100284.2;;;;-80
2022/12/22 20:52:49;;;;;;;18.3;8;;;;;;;;;;;;;-79
2022/12/22 20:54:20;;;;;;;;;;;;;;;7.22;100;100282.8;;;;-80
2022/12/22 20:59:23;;;;;;;;;;;;;;;7.26;100;100298.6;;;;-80
2022/12/22 21:20:16;;;;;;;;;;;;;;;7.44;100;100290.5;;;;-77
2022/12/22 21:22:49;;;;;;;19.9;7.4;;;;;;;;;;;;;-80
2022/12/22 21:23:34;;;;;;;;;;;;;;;7.4;100;100293.8;;;;-80
2022/12/22 21:28:36;;;;;;;;;;;;;;;7.43;100;100295;;;;-80
2022/12/22 21:33:34;;;;;;;;;;;;;;;7.46;100;100299.9;;;;-81
2022/12/22 21:38:35;;;;;;;;;;;;;;;7.49;100;100299.2;;;;-80
2022/12/22 21:43:34;;;;;;;;;;;;;;;7.52;100;100308.4;;;;-80
2022/12/22 21:48:34;;;;;;;;;;;;;;;7.56;100;100312.3;;;;-80
2022/12/22 21:52:52;;;;;;;20.2;7.4;;;;;;;;;;;;;-79
2022/12/22 21:53:35;;;;;;;;;;;;;;;7.58;100;100300.8;;;;-80
2022/12/22 21:58:34;;;;;;;;;;;;;;;7.62;100;100300;;;;-79
2022/12/22 22:03:34;;;;;;;;;;;;;;;7.64;100;100303.5;;;;-79
2022/12/22 22:08:34;;;;;;;;;;;;;;;7.66;100;100312.8;;;;-80
2022/12/22 22:13:34;;;;;;;;;;;;;;;7.68;100;100329;;;;-75
2022/12/22 22:18:34;;;;;;;;;;;;;;;7.71;100;100329.9;;;;-75
2022/12/22 22:22:52;;;;;;;23.1;6.6;;;;;;;;;;;;;-75
2022/12/22 22:23:34;;;;;;;;;;;;;;;7.72;100;100326.9;;;;-75
2022/12/22 22:28:34;;;;;;;;;;;;;;;7.73;100;100327.5;;;;-75
2022/12/22 22:33:34;;;;;;;;;;;;;;;7.73;100;100335.7;;;;-75
2022/12/22 22:38:34;;;;;;;;;;;;;;;7.75;100;100334.6;;;;-76
2022/12/22 22:43:34;;;;;;;;;;;;;;;7.75;100;100334.8;;;;-75
2022/12/22 22:48:34;;;;;;;;;;;;;;;7.75;100;100334.6;;;;-74
2022/12/22 22:52:52;;;;;;;16.4;6.2;;;;;;;;;;;;;-76
2022/12/22 22:53:34;;;;;;;;;;;;;;;7.74;100;100328.3;;;;-75
2022/12/22 22:58:34;;;;;;;;;;;;;;;7.72;100;100327.7;;;;-75
2022/12/22 23:03:34;;;;;;;;;;;;;;;7.68;100;100318;;;;-75
2022/12/22 23:08:34;;;;;;;;;;;;;;;7.64;100;100316.5;;;;-74
2022/12/22 23:13:34;;;;;;;;;;;;;;;7.61;100;100322;;;;-75
2022/12/22 23:18:34;;;;;;;;;;;;;;;7.58;100;100322.7;;;;-74
2022/12/22 23:22:52;;;;;;;15.8;5;;;;;;;;;;;;;-75
2022/12/22 23:23:34;;;;;;;;;;;;;;;7.54;100;100317.4;;;;-75
2022/12/22 23:28:34;;;;;;;;;;;;;;;7.48;100;100319.6;;;;-74
2022/12/22 23:33:34;;;;;;;;;;;;;;;7.42;100;100315.7;;;;-75
2022/12/22 23:38:34;;;;;;;;;;;;;;;7.36;100;100324.5;;;;-74
2022/12/22 23:43:34;;;;;;;;;;;;;;;7.3;100;100333.7;;;;-74
2022/12/22 23:48:34;;;;;;;;;;;;;;;7.23;100;100341.7;;;;-74
2022/12/22 23:52:53;;;;;;;11.6;4.3;;;;;;;;;;;;;-75
2022/12/22 23:53:34;;;;;;;;;;;;;;;7.18;100;100350.4;;;;-74
2022/12/22 23:58:34;;;;;;;;;;;;;;;7.14;100;100358.7;;;;-74
